Time;durP1;ratioP1;P1;durP2;ratioP2;P2;SDS_P1;SDS_P2;PMS_P1;PMS_P2;Temp;Humidity;BMP_temperature;BMP_pressure;BME280_temperature;BME280_humidity;BME280_pressure;Samples;Min_cycle;Max_cycle;Signal;HPM_P1;HPM_P2
2023/08/30 00:00:05;;;;;;;115.17;4.30;;;18.60;54.30;;;;;;5030538;28;20177;-75
2023/08/30 00:02:31;;;;;;;114.30;3.57;;;18.60;54.40;;;;;;5030779;28;20200;-74
2023/08/30 00:05:00;;;;;;;114.37;3.60;;;19.00;54.90;;;;;;5030199;28;20953;-74
2023/08/30 00:07:26;;;;;;;114.60;3.97;;;18.60;54.10;;;;;;5030734;28;20177;-74
2023/08/30 00:09:51;;;;;;;114.60;3.80;;;18.90;54.30;;;;;;5030614;28;20419;-75
2023/08/30 00:12:17;;;;;;;114.97;3.70;;;18.50;54.00;;;;;;5030653;28;20454;-75
2023/08/30 00:14:43;;;;;;;114.87;4.20;;;18.60;53.60;;;;;;5030096;28;20224;-74
2023/08/30 00:17:09;;;;;;;114.27;3.50;;;18.50;53.30;;;;;;5030517;28;20640;-74
2023/08/30 00:19:34;;;;;;;114.97;3.87;;;18.50;53.50;;;;;;5031442;28;20180;-74
2023/08/30 00:22:00;;;;;;;114.00;3.30;;;18.50;53.40;;;;;;5034138;28;20427;-75
2023/08/30 00:24:26;;;;;;;114.80;3.87;;;18.80;53.30;;;;;;5033839;28;20215;-73
2023/08/30 00:26:51;;;;;;;114.40;3.53;;;18.50;53.50;;;;;;5034546;28;20514;-75
2023/08/30 00:29:17;;;;;;;114.27;3.33;;;18.50;53.90;;;;;;5033886;28;20208;-77
2023/08/30 00:31:42;;;;;;;114.80;3.70;;;18.50;54.40;;;;;;5034352;28;20176;-77
2023/08/30 00:34:08;;;;;;;114.30;3.57;;;18.70;54.90;;;;;;5034161;28;20200;-77
2023/08/30 00:36:34;;;;;;;114.57;3.67;;;18.30;54.90;;;;;;5033894;28;20710;-77
2023/08/30 00:38:59;;;;;;;114.87;3.60;;;18.40;54.60;;;;;;5036502;28;20177;-78
2023/08/30 00:41:25;;;;;;;114.27;3.40;;;18.40;54.50;;;;;;5033808;28;20650;-78
2023/08/30 00:43:50;;;;;;;114.30;3.60;;;18.40;55.10;;;;;;5033700;28;20567;-77
2023/08/30 00:46:16;;;;;;;114.17;3.40;;;18.50;55.30;;;;;;5033471;28;20173;-78
2023/08/30 00:48:43;;;;;;;116.37;4.20;;;18.50;55.10;;;;;;5033814;28;20173;-78
2023/08/30 00:51:09;;;;;;;113.90;3.20;;;18.50;54.20;;;;;;5033645;28;20524;-78
2023/08/30 00:53:34;;;;;;;114.53;3.80;;;18.60;54.20;;;;;;5033520;28;20462;-78
2023/08/30 00:56:00;;;;;;;114.70;3.70;;;18.60;53.60;;;;;;5033261;28;20235;-77
2023/08/30 00:58:28;;;;;;;113.90;3.17;;;18.50;53.90;;;;;;5033631;28;20235;-77
2023/08/30 01:00:54;;;;;;;114.37;3.67;;;18.50;53.70;;;;;;5033641;28;20180;-77
2023/08/30 01:03:21;;;;;;;114.87;3.83;;;18.50;53.20;;;;;;5033617;28;20493;-77
2023/08/30 01:05:47;;;;;;;114.20;3.40;;;18.50;52.80;;;;;;5033370;28;20459;-77
2023/08/30 01:08:13;;;;;;;114.47;3.43;;;18.40;53.40;;;;;;5033670;28;20415;-77
2023/08/30 01:10:53;;;;;;;114.50;3.50;;;18.40;53.70;;;;;;5033851;28;20204;-77
2023/08/30 01:13:20;;;;;;;114.27;3.60;;;18.40;53.70;;;;;;5022261;28;20525;-77
2023/08/30 01:15:48;;;;;;;114.80;3.90;;;18.30;53.50;;;;;;5023060;28;20970;-77
2023/08/30 01:18:17;;;;;;;114.37;3.43;;;18.60;54.20;;;;;;5033409;28;20839;-76
2023/08/30 01:20:45;;;;;;;115.27;4.00;;;18.20;53.30;;;;;;5033400;28;20948;-77
2023/08/30 01:23:46;;;;;;;114.77;3.20;;;18.20;53.80;;;;;;5033501;28;20466;-77
2023/08/30 01:26:29;;;;;;;114.60;3.67;;;18.20;53.90;;;;;;5030901;28;20498;-77
2023/08/30 01:28:56;;;;;;;114.30;3.40;;;18.20;53.60;;;;;;5034370;28;20408;-78
2023/08/30 01:31:24;;;;;;;114.97;4.00;;;18.30;53.10;;;;;;5018133;28;20775;-77
2023/08/30 01:33:50;;;;;;;115.20;3.97;;;18.30;53.10;;;;;;5021614;28;20431;-78
2023/08/30 01:36:16;;;;;;;114.30;3.30;;;18.10;53.70;;;;;;5034147;28;20442;-77
2023/08/30 01:38:43;;;;;;;114.87;4.00;;;18.10;53.50;;;;;;5016944;28;20428;-77
2023/08/30 01:41:09;;;;;;;114.77;3.83;;;18.10;53.10;;;;;;5033329;28;20834;-77
2023/08/30 01:43:36;;;;;;;114.77;3.83;;;18.00;54.50;;;;;;5032857;28;20552;-77
2023/08/30 01:46:04;;;;;;;116.30;4.73;;;18.10;53.60;;;;;;5032770;28;20915;-77
2023/08/30 01:48:31;;;;;;;114.70;3.67;;;18.10;52.80;;;;;;5032840;28;20404;-77
2023/08/30 01:51:00;;;;;;;114.17;3.27;;;18.10;53.30;;;;;;5032879;28;20780;-77
2023/08/30 01:53:27;;;;;;;114.53;3.60;;;18.00;52.90;;;;;;5032619;28;20473;-77
2023/08/30 01:55:53;;;;;;;114.90;3.70;;;17.90;53.00;;;;;;5032533;28;20898;-77
2023/08/30 01:58:20;;;;;;;114.97;3.73;;;18.10;52.50;;;;;;5032786;28;20412;-77
2023/08/30 02:00:45;;;;;;;114.97;3.67;;;18.00;53.30;;;;;;5032403;28;20180;-77
2023/08/30 02:03:12;;;;;;;114.93;3.73;;;18.30;53.20;;;;;;5032429;28;20435;-77
2023/08/30 02:06:08;;;;;;;115.00;4.00;;;17.90;53.50;;;;;;5032150;28;20212;-77
2023/08/30 02:09:08;;;;;;;115.60;3.93;;;17.90;54.40;;;;;;5026142;28;20427;-77
2023/08/30 02:11:35;;;;;;;114.47;3.33;;;17.90;53.00;;;;;;5032408;28;20408;-77
2023/08/30 02:14:02;;;;;;;114.67;3.50;;;18.00;53.70;;;;;;5032906;28;20824;-78
2023/08/30 02:16:28;;;;;;;114.57;3.53;;;18.20;54.10;;;;;;5033606;28;20443;-77
2023/08/30 02:18:54;;;;;;;114.70;3.63;;;17.90;54.00;;;;;;5014708;28;20478;-77
2023/08/30 02:21:20;;;;;;;114.37;3.40;;;17.80;54.40;;;;;;5032411;28;20187;-77
2023/08/30 02:23:52;;;;;;;116.47;3.80;;;18.00;54.60;;;;;;5031820;28;20442;-77
2023/08/30 02:26:20;;;;;;;114.77;3.70;;;18.00;54.40;;;;;;5014147;28;20207;-77
2023/08/30 02:28:46;;;;;;;114.57;3.60;;;18.20;53.30;;;;;;5032027;28;20919;-77
2023/08/30 02:31:12;;;;;;;114.60;3.53;;;18.20;52.90;;;;;;5031999;28;20400;-77
2023/08/30 02:33:37;;;;;;;114.40;3.20;;;18.00;53.40;;;;;;5031929;28;20188;-77
2023/08/30 02:36:04;;;;;;;118.67;4.13;;;18.10;53.70;;;;;;5032255;28;20172;-77
2023/08/30 02:38:29;;;;;;;115.17;3.77;;;18.10;53.40;;;;;;5032571;28;20184;-77
2023/08/30 02:40:55;;;;;;;114.67;3.60;;;18.10;54.10;;;;;;5032105;28;20415;-77
2023/08/30 02:43:21;;;;;;;114.90;3.50;;;18.10;53.60;;;;;;5031819;28;20627;-77
2023/08/30 02:45:47;;;;;;;114.87;3.87;;;18.10;53.30;;;;;;5031790;28;20201;-77
2023/08/30 02:48:13;;;;;;;114.60;3.50;;;18.20;53.90;;;;;;5032194;28;20414;-77
2023/08/30 02:50:39;;;;;;;114.30;3.30;;;18.20;53.80;;;;;;5032000;28;20169;-77
2023/08/30 02:53:04;;;;;;;114.57;3.40;;;18.10;53.60;;;;;;5031607;28;20506;-77
2023/08/30 02:55:30;;;;;;;114.57;3.80;;;18.10;53.60;;;;;;5031635;28;20173;-77
2023/08/30 02:57:56;;;;;;;114.40;3.47;;;18.10;53.70;;;;;;5031719;28;20196;-77
2023/08/30 03:00:22;;;;;;;114.30;3.33;;;18.10;53.90;;;;;;5031672;28;20439;-77
2023/08/30 03:02:48;;;;;;;114.27;3.27;;;18.10;54.10;;;;;;5031566;28;20534;-78
2023/08/30 03:05:14;;;;;;;114.00;3.20;;;18.10;54.30;;;;;;5031479;28;20419;-74
2023/08/30 03:07:39;;;;;;;115.37;3.50;;;18.10;53.60;;;;;;5013480;28;20432;-75
2023/08/30 03:10:06;;;;;;;114.80;3.70;;;18.10;53.20;;;;;;5031205;28;20177;-75
2023/08/30 03:12:32;;;;;;;114.97;3.90;;;18.00;53.80;;;;;;5031099;28;20666;-75
2023/08/30 03:14:58;;;;;;;115.37;4.00;;;18.10;54.40;;;;;;5030940;28;20435;-75
2023/08/30 03:17:24;;;;;;;114.67;3.63;;;18.20;54.00;;;;;;5031292;28;20416;-77
2023/08/30 03:19:53;;;;;;;116.77;4.23;;;18.50;52.10;;;;;;5031703;28;20169;-77
2023/08/30 03:22:18;;;;;;;114.40;3.40;;;18.50;52.00;;;;;;5031801;28;20435;-76
2023/08/30 03:24:44;;;;;;;114.57;3.57;;;18.40;52.70;;;;;;5031310;28;20487;-78
2023/08/30 03:27:10;;;;;;;114.87;4.03;;;18.30;52.90;;;;;;5031596;28;20231;-77
2023/08/30 03:29:35;;;;;;;114.90;3.70;;;18.10;53.50;;;;;;5031557;28;20247;-77
2023/08/30 03:32:01;;;;;;;114.27;3.33;;;18.10;53.40;;;;;;5031442;28;20222;-78
2023/08/30 03:34:27;;;;;;;114.60;3.30;;;18.30;53.80;;;;;;5031022;28;20201;-78
2023/08/30 03:36:54;;;;;;;114.47;3.40;;;18.20;53.00;;;;;;5031087;28;20211;-78
2023/08/30 03:39:20;;;;;;;114.47;3.40;;;18.10;53.40;;;;;;5031174;28;20173;-78
2023/08/30 03:41:46;;;;;;;120.90;3.77;;;18.20;53.40;;;;;;5031228;28;20472;-78
2023/08/30 03:44:11;;;;;;;115.67;3.70;;;18.10;53.20;;;;;;5030963;28;20970;-77
2023/08/30 03:46:37;;;;;;;114.57;3.53;;;18.10;53.70;;;;;;5030874;28;20165;-78
2023/08/30 03:49:03;;;;;;;114.60;3.50;;;18.20;53.30;;;;;;5031104;28;20628;-78
2023/08/30 03:51:29;;;;;;;115.30;3.90;;;18.10;53.40;;;;;;5031816;28;20215;-78
2023/08/30 03:53:56;;;;;;;114.40;3.30;;;18.00;54.10;;;;;;5031000;28;20986;-78
2023/08/30 03:56:22;;;;;;;114.97;3.77;;;18.00;54.20;;;;;;5035216;28;20428;-77
2023/08/30 03:58:48;;;;;;;114.40;3.37;;;18.00;53.40;;;;;;5035768;28;20491;-77
2023/08/30 04:01:14;;;;;;;114.87;3.87;;;18.00;53.60;;;;;;5036372;28;20856;-77
2023/08/30 04:03:39;;;;;;;116.60;3.77;;;18.10;53.40;;;;;;5034828;28;20189;-76
2023/08/30 04:06:05;;;;;;;114.40;3.20;;;18.10;53.90;;;;;;5034479;28;20688;-77
2023/08/30 04:08:31;;;;;;;114.30;3.40;;;18.10;52.80;;;;;;5034607;28;20197;-77
2023/08/30 04:10:57;;;;;;;114.60;3.50;;;18.10;52.50;;;;;;5034791;28;20231;-77
2023/08/30 04:13:22;;;;;;;114.67;3.50;;;18.00;52.60;;;;;;5034900;28;20887;-77
2023/08/30 04:15:48;;;;;;;114.60;3.40;;;18.00;53.80;;;;;;5034552;28;20664;-77
2023/08/30 04:18:14;;;;;;;115.17;3.87;;;17.90;53.80;;;;;;5034603;28;20593;-77
2023/08/30 04:20:44;;;;;;;114.70;3.57;;;18.00;53.90;;;;;;5034697;28;20178;-78
2023/08/30 04:23:09;;;;;;;114.87;3.60;;;18.10;53.10;;;;;;5015697;28;20221;-78
2023/08/30 04:25:37;;;;;;;114.77;3.53;;;18.00;52.90;;;;;;5014208;28;20459;-77
2023/08/30 04:28:03;;;;;;;114.57;3.40;;;17.90;52.80;;;;;;5008657;28;20189;-77
2023/08/30 04:33:52;;;;;;;114.27;3.17;;;17.90;53.40;;;;;;5011772;28;20924;-76
2023/08/30 04:36:18;;;;;;;115.27;3.80;;;18.00;51.80;;;;;;5016133;28;20529;-76
2023/08/30 04:38:43;;;;;;;114.50;3.20;;;18.10;52.00;;;;;;5028804;28;21007;-77
2023/08/30 04:41:09;;;;;;;114.40;3.30;;;18.40;53.60;;;;;;5034025;28;20177;-77
2023/08/30 04:43:34;;;;;;;115.63;3.90;;;17.90;53.30;;;;;;5016273;28;20196;-77
2023/08/30 04:46:00;;;;;;;114.90;3.70;;;17.90;52.70;;;;;;5033597;28;20291;-77
2023/08/30 04:48:25;;;;;;;115.30;4.20;;;14.90;51.00;;;;;;5034064;28;20169;-77
2023/08/30 04:51:02;;;;;;;115.47;4.27;;;17.70;53.50;;;;;;5033598;28;20169;-77
2023/08/30 04:53:28;;;;;;;114.70;3.53;;;17.70;53.40;;;;;;5007206;28;20727;-77
2023/08/30 04:55:54;;;;;;;114.80;3.57;;;17.70;53.80;;;;;;5013580;28;20428;-77
2023/08/30 04:58:20;;;;;;;114.87;3.63;;;18.20;52.90;;;;;;5013861;28;20177;-77
2023/08/30 05:00:45;;;;;;;115.00;3.63;;;17.80;52.50;;;;;;5013766;28;20256;-77
2023/08/30 05:03:11;;;;;;;114.77;3.53;;;17.90;52.40;;;;;;5013752;28;20228;-77
2023/08/30 05:05:37;;;;;;;114.30;3.20;;;17.90;52.00;;;;;;5012477;28;20205;-75
2023/08/30 05:08:03;;;;;;;114.60;3.40;;;18.00;52.00;;;;;;5007495;28;20217;-77
2023/08/30 05:10:29;;;;;;;114.70;3.50;;;18.10;51.50;;;;;;5013944;28;20572;-77
2023/08/30 05:12:55;;;;;;;114.67;3.50;;;18.00;51.20;;;;;;5007013;28;20795;-77
2023/08/30 05:15:21;;;;;;;114.90;3.80;;;18.00;51.60;;;;;;5008589;28;20494;-77
2023/08/30 05:17:47;;;;;;;115.67;4.47;;;17.90;52.40;;;;;;5007931;28;20428;-77
2023/08/30 05:20:12;;;;;;;114.47;3.40;;;17.80;53.00;;;;;;5005918;28;20189;-78
2023/08/30 05:22:38;;;;;;;115.37;3.90;;;18.00;53.20;;;;;;5004118;28;20185;-77
2023/08/30 05:25:05;;;;;;;115.00;3.77;;;18.20;53.50;;;;;;5008300;28;20783;-77
2023/08/30 05:27:30;;;;;;;114.27;3.40;;;17.80;53.70;;;;;;5008837;28;20519;-77
2023/08/30 05:29:56;;;;;;;114.80;3.70;;;17.90;53.10;;;;;;5001915;28;20182;-77
2023/08/30 05:32:22;;;;;;;114.90;3.60;;;17.90;52.50;;;;;;5008273;28;20559;-77
2023/08/30 05:34:48;;;;;;;114.70;3.60;;;18.00;53.40;;;;;;5011555;28;20201;-76
2023/08/30 05:37:13;;;;;;;115.37;3.67;;;17.90;53.30;;;;;;5016498;28;20264;-76
2023/08/30 05:39:39;;;;;;;116.13;3.97;;;17.90;53.10;;;;;;5022799;28;20606;-77
2023/08/30 05:42:05;;;;;;;115.07;3.93;;;17.70;54.00;;;;;;5014342;28;20419;-77
2023/08/30 05:44:30;;;;;;;114.70;3.40;;;17.70;53.70;;;;;;5010780;28;20205;-77
2023/08/30 05:46:56;;;;;;;114.60;3.60;;;17.70;54.20;;;;;;5011797;28;20174;-77
2023/08/30 05:49:22;;;;;;;114.40;3.30;;;14.30;50.30;;;;;;5002477;28;20189;-77
2023/08/30 05:51:47;;;;;;;116.67;3.60;;;17.70;54.40;;;;;;5012553;28;20185;-78
2023/08/30 05:54:13;;;;;;;114.30;3.27;;;17.70;54.40;;;;;;5003866;28;20331;-77
2023/08/30 05:56:39;;;;;;;114.53;3.43;;;17.60;53.70;;;;;;5012608;28;20173;-78
2023/08/30 05:59:05;;;;;;;114.47;3.40;;;17.70;53.60;;;;;;5012789;28;20941;-77
2023/08/30 06:01:30;;;;;;;114.20;3.30;;;17.90;54.30;;;;;;5012884;28;20185;-76
2023/08/30 06:03:56;;;;;;;114.67;3.63;;;18.10;53.80;;;;;;5012720;28;20673;-77
2023/08/30 06:06:21;;;;;;;114.77;3.80;;;18.40;51.20;;;;;;5012800;28;20192;-78
2023/08/30 06:08:47;;;;;;;114.63;3.53;;;18.70;50.40;;;;;;5012920;28;20169;-77
2023/08/30 06:11:13;;;;;;;114.90;4.00;;;18.80;51.70;;;;;;5012453;28;20166;-77
2023/08/30 06:13:39;;;;;;;114.07;3.27;;;18.50;51.60;;;;;;5012429;28;20502;-76
2023/08/30 06:16:05;;;;;;;116.80;3.60;;;17.70;55.20;;;;;;5010851;28;20507;-77
2023/08/30 06:18:31;;;;;;;114.50;3.50;;;18.30;55.30;;;;;;5011920;28;20691;-76
2023/08/30 06:20:57;;;;;;;116.47;4.03;;;17.90;54.60;;;;;;5012292;28;20173;-77
2023/08/30 06:23:23;;;;;;;114.80;3.83;;;17.70;55.70;;;;;;5012282;28;20442;-77
2023/08/30 06:25:56;;;;;;;114.50;3.60;;;17.20;57.80;;;;;;5011893;28;20211;-77
2023/08/30 06:28:21;;;;;;;115.57;3.60;;;17.10;56.80;;;;;;5012227;28;20169;-77
2023/08/30 06:30:47;;;;;;;115.20;3.83;;;17.00;58.10;;;;;;5004041;28;20516;-76
2023/08/30 06:33:13;;;;;;;114.60;3.50;;;17.10;58.30;;;;;;5007698;28;20201;-77
2023/08/30 06:35:39;;;;;;;114.40;3.47;;;17.40;59.10;;;;;;5005954;28;20284;-77
2023/08/30 06:38:05;;;;;;;115.37;3.87;;;17.80;56.40;;;;;;5014767;28;20182;-77
2023/08/30 06:40:30;;;;;;;114.30;3.40;;;18.20;52.10;;;;;;5006807;28;20486;-77
2023/08/30 06:42:57;;;;;;;114.27;3.17;;;18.60;49.80;;;;;;5003459;28;20434;-77
2023/08/30 06:45:22;;;;;;;114.57;3.57;;;18.90;48.80;;;;;;5007689;28;20203;-77
2023/08/30 06:47:49;;;;;;;114.57;3.50;;;19.00;49.70;;;;;;5003050;28;20425;-77
2023/08/30 06:50:15;;;;;;;114.70;3.57;;;19.20;48.40;;;;;;5011509;28;20415;-77
2023/08/30 06:52:40;;;;;;;114.67;3.73;;;19.00;49.50;;;;;;5010377;28;20978;-77
2023/08/30 06:55:06;;;;;;;114.67;3.70;;;19.20;51.50;;;;;;5005498;28;20219;-77
2023/08/30 06:57:32;;;;;;;114.17;3.30;;;19.00;49.80;;;;;;5012555;28;20757;-77
2023/08/30 06:59:59;;;;;;;114.20;3.30;;;19.50;50.70;;;;;;5006823;28;20189;-77
2023/08/30 07:02:25;;;;;;;115.80;3.70;;;19.10;49.90;;;;;;5012306;28;20663;-77
2023/08/30 07:04:51;;;;;;;115.03;3.60;;;18.60;50.90;;;;;;5004567;28;20469;-77
2023/08/30 07:07:16;;;;;;;114.80;3.50;;;18.40;53.20;;;;;;5010818;28;20442;-77
2023/08/30 07:09:42;;;;;;;114.80;3.70;;;18.50;52.00;;;;;;5010758;28;20261;-77
2023/08/30 07:12:08;;;;;;;114.20;3.30;;;18.80;53.40;;;;;;5012563;28;20650;-78
2023/08/30 07:14:33;;;;;;;115.03;3.60;;;18.60;53.80;;;;;;5012428;28;20260;-78
2023/08/30 07:16:59;;;;;;;114.57;3.53;;;18.80;53.20;;;;;;5013275;28;20181;-77
2023/08/30 07:19:25;;;;;;;115.07;3.90;;;19.20;52.10;;;;;;5012740;28;20185;-78
2023/08/30 07:21:51;;;;;;;115.30;4.00;;;18.80;52.20;;;;;;5012421;28;20446;-77
2023/08/30 07:24:16;;;;;;;114.70;3.70;;;19.10;53.60;;;;;;5008813;28;20925;-77
2023/08/30 07:26:42;;;;;;;114.87;3.63;;;18.90;53.70;;;;;;5012915;28;20189;-78
2023/08/30 07:29:09;;;;;;;114.23;3.20;;;19.00;53.60;;;;;;5008373;28;20220;-77
2023/08/30 07:31:34;;;;;;;114.67;3.77;;;19.30;53.00;;;;;;5017611;28;20193;-77
2023/08/30 07:34:00;;;;;;;114.07;3.50;;;19.80;53.60;;;;;;5017614;28;20879;-77
2023/08/30 07:36:28;;;;;;;114.57;3.60;;;19.90;52.40;;;;;;5017645;28;20173;-77
2023/08/30 07:38:53;;;;;;;114.27;3.47;;;20.20;51.00;;;;;;5006384;28;20421;-76
2023/08/30 07:41:19;;;;;;;118.10;4.40;;;20.10;51.20;;;;;;5012146;28;21028;-78
2023/08/30 07:43:45;;;;;;;114.17;3.63;;;20.00;49.40;;;;;;5012823;28;20445;-77
2023/08/30 07:46:10;;;;;;;113.60;2.90;;;19.40;49.50;;;;;;5012546;28;20268;-77
2023/08/30 07:48:36;;;;;;;114.10;3.07;;;18.40;55.00;;;;;;5015002;28;20185;-77
2023/08/30 07:51:01;;;;;;;115.10;4.00;;;18.90;54.90;;;;;;5017167;28;20555;-77
2023/08/30 07:53:27;;;;;;;114.07;3.47;;;19.50;53.30;;;;;;5016735;28;20218;-78
2023/08/30 07:55:53;;;;;;;113.87;3.63;;;19.50;51.30;;;;;;5009732;28;20283;-77
2023/08/30 07:58:18;;;;;;;116.67;3.80;;;18.80;52.10;;;;;;5014647;28;20192;-77
2023/08/30 08:00:44;;;;;;;113.53;3.13;;;18.70;50.80;;;;;;5013394;28;20555;-78
2023/08/30 08:03:10;;;;;;;113.87;3.43;;;19.00;53.00;;;;;;5004814;28;20203;-77
2023/08/30 08:05:36;;;;;;;113.87;3.50;;;19.10;52.40;;;;;;5014688;28;20202;-77
2023/08/30 08:08:02;;;;;;;115.60;4.10;;;18.50;53.90;;;;;;5008427;28;20422;-78
2023/08/30 08:10:34;;;;;;;114.00;3.27;;;18.60;52.30;;;;;;5014684;28;20420;-78
2023/08/30 08:13:00;;;;;;;114.00;3.60;;;18.70;53.90;;;;;;5014724;28;20399;-78
2023/08/30 08:15:26;;;;;;;113.87;3.80;;;18.60;56.60;;;;;;5007699;28;20941;-78
2023/08/30 08:17:52;;;;;;;114.30;3.90;;;18.20;57.50;;;;;;5011757;28;20434;-78
2023/08/30 08:20:17;;;;;;;113.40;3.63;;;18.20;58.30;;;;;;5013145;28;20945;-78
2023/08/30 08:22:43;;;;;;;113.40;3.30;;;18.60;55.30;;;;;;5011260;28;20183;-78
2023/08/30 08:25:09;;;;;;;113.23;3.40;;;18.90;54.20;;;;;;5013165;28;20220;-78
2023/08/30 08:27:36;;;;;;;113.50;3.20;;;18.80;52.60;;;;;;5010528;28;20252;-78
2023/08/30 08:30:03;;;;;;;114.10;3.77;;;19.60;50.40;;;;;;5014540;28;20898;-77
2023/08/30 08:32:30;;;;;;;113.50;3.60;;;19.30;49.70;;;;;;5014590;28;20926;-78
2023/08/30 08:34:56;;;;;;;112.93;3.37;;;19.80;51.10;;;;;;5014131;28;20429;-79
2023/08/30 08:37:22;;;;;;;113.67;4.00;;;20.20;47.00;;;;;;5014728;28;20411;-78
2023/08/30 08:39:49;;;;;;;112.77;3.03;;;20.50;44.50;;;;;;5014381;28;20525;-78
2023/08/30 08:42:19;;;;;;;113.50;3.50;;;19.70;45.80;;;;;;5016935;28;20180;-77
2023/08/30 08:44:48;;;;;;;112.47;2.83;;;20.10;46.70;;;;;;5015146;28;20466;-78
2023/08/30 08:47:16;;;;;;;113.10;3.47;;;19.60;44.60;;;;;;5015708;28;20420;-78
2023/08/30 08:49:43;;;;;;;113.27;3.50;;;19.90;46.40;;;;;;5014763;28;20833;-79
2023/08/30 08:52:09;;;;;;;112.90;3.23;;;20.40;44.70;;;;;;5014910;28;20402;-76
2023/08/30 08:54:38;;;;;;;112.43;3.07;;;19.30;46.00;;;;;;5015676;28;20470;-77
2023/08/30 08:57:07;;;;;;;113.27;3.47;;;19.40;48.90;;;;;;5016703;28;20411;-77
2023/08/30 08:59:33;;;;;;;113.10;3.60;;;19.60;47.80;;;;;;5015806;28;20435;-77
2023/08/30 09:02:02;;;;;;;113.07;3.50;;;19.30;48.10;;;;;;5016009;28;20446;-77
2023/08/30 09:04:32;;;;;;;112.93;3.77;;;19.60;48.40;;;;;;4998014;28;20227;-78
2023/08/30 09:07:02;;;;;;;113.03;3.17;;;19.30;47.40;;;;;;4998824;28;20438;-77
2023/08/30 09:09:28;;;;;;;112.57;3.43;;;19.50;48.40;;;;;;5016095;28;20412;-78
2023/08/30 09:11:53;;;;;;;113.07;3.53;;;19.90;46.60;;;;;;5017131;28;20898;-76
2023/08/30 09:14:19;;;;;;;112.27;3.20;;;20.20;43.30;;;;;;5016718;28;20220;-77
2023/08/30 09:17:14;;;;;;;114.50;3.63;;;20.50;43.40;;;;;;5016314;28;20188;-78
2023/08/30 09:19:40;;;;;;;112.27;3.33;;;20.20;43.60;;;;;;4937100;29;20442;-78
2023/08/30 09:22:05;;;;;;;112.37;3.23;;;20.50;43.60;;;;;;4936909;29;20424;-77
2023/08/30 09:24:41;;;;;;;116.60;4.33;;;20.00;42.80;;;;;;4935667;29;20224;-76
2023/08/30 09:27:07;;;;;;;112.37;3.63;;;19.70;43.70;;;;;;4936414;29;20238;-78
2023/08/30 09:29:32;;;;;;;112.30;3.50;;;20.10;43.20;;;;;;4936241;29;20469;-77
2023/08/30 09:31:58;;;;;;;111.70;3.30;;;20.30;42.40;;;;;;4936931;29;20792;-78
2023/08/30 09:34:27;;;;;;;112.53;3.47;;;20.00;41.70;;;;;;4937393;29;20215;-77
2023/08/30 09:36:53;;;;;;;112.20;3.67;;;20.00;41.60;;;;;;4936234;29;20275;-78
2023/08/30 09:39:19;;;;;;;111.57;3.10;;;20.40;40.80;;;;;;4937036;29;20858;-78
2023/08/30 09:41:47;;;;;;;111.60;3.30;;;20.80;38.50;;;;;;4936289;29;20428;-78
2023/08/30 09:44:14;;;;;;;111.40;3.33;;;21.00;38.20;;;;;;4936801;29;20214;-78
2023/08/30 09:46:49;;;;;;;111.60;3.43;;;21.60;37.00;;;;;;4936614;29;20427;-77
2023/08/30 09:49:15;;;;;;;111.40;3.47;;;21.80;34.70;;;;;;4936213;29;20447;-78
2023/08/30 09:51:42;;;;;;;111.50;3.47;;;21.40;36.00;;;;;;4935611;29;20416;-78
2023/08/30 09:54:15;;;;;;;111.10;3.00;;;20.40;35.60;;;;;;4935397;29;21001;-77
2023/08/30 09:56:43;;;;;;;113.80;3.93;;;20.00;38.40;;;;;;5000169;28;20499;-77
2023/08/30 09:59:14;;;;;;;111.07;3.07;;;19.60;39.00;;;;;;5015321;28;20767;-78
2023/08/30 10:01:41;;;;;;;111.00;3.13;;;19.40;39.90;;;;;;5015891;28;20782;-77
2023/08/30 10:04:11;;;;;;;110.70;3.17;;;20.20;38.80;;;;;;5015641;28;20432;-77
2023/08/30 10:06:39;;;;;;;111.20;3.50;;;20.70;35.60;;;;;;5015674;28;20411;-77
2023/08/30 10:09:09;;;;;;;111.20;3.63;;;20.50;36.50;;;;;;4998310;28;20987;-77
2023/08/30 10:11:37;;;;;;;111.07;3.83;;;20.50;36.10;;;;;;5015452;28;20412;-78
2023/08/30 10:14:04;;;;;;;110.70;3.37;;;20.40;38.30;;;;;;5015288;28;20429;-78
2023/08/30 10:16:43;;;;;;;110.60;3.00;;;20.80;36.20;;;;;;4997607;28;20457;-78
2023/08/30 10:19:22;;;;;;;110.90;3.30;;;21.00;34.80;;;;;;5015884;28;20480;-76
2023/08/30 10:21:51;;;;;;;110.63;3.30;;;20.90;35.10;;;;;;5015643;28;20428;-78
2023/08/30 10:24:20;;;;;;;110.70;3.30;;;21.30;33.90;;;;;;5015552;28;20440;-78
2023/08/30 10:26:48;;;;;;;110.30;3.10;;;21.40;36.00;;;;;;5015719;28;20421;-78
2023/08/30 10:29:16;;;;;;;110.40;3.40;;;21.70;35.40;;;;;;5015371;28;20423;-76
2023/08/30 10:31:41;;;;;;;109.67;2.97;;;20.80;35.20;;;;;;5015146;28;20873;-77
2023/08/30 10:34:17;;;;;;;110.07;3.37;;;20.40;36.90;;;;;;5015479;28;20490;-77
2023/08/30 10:36:44;;;;;;;109.83;3.07;;;21.00;35.10;;;;;;5017075;28;20206;-78
2023/08/30 10:39:13;;;;;;;117.53;4.50;;;20.90;36.90;;;;;;5015956;28;20422;-77
2023/08/30 10:41:55;;;;;;;109.80;3.17;;;21.00;34.10;;;;;;5015083;28;20422;-77
2023/08/30 10:44:22;;;;;;;109.97;3.07;;;20.50;37.60;;;;;;5015562;28;20466;-78
2023/08/30 10:46:55;;;;;;;109.93;3.17;;;20.20;37.30;;;;;;5014878;28;20424;-78
2023/08/30 10:49:21;;;;;;;110.50;3.43;;;20.80;38.10;;;;;;5016047;28;20462;-77
2023/08/30 10:52:00;;;;;;;110.23;3.90;;;21.20;37.00;;;;;;5015437;28;20416;-78
2023/08/30 10:54:40;;;;;;;110.40;3.60;;;21.50;40.40;;;;;;5014842;28;20468;-77
2023/08/30 10:57:12;;;;;;;110.80;3.57;;;20.60;39.40;;;;;;5015058;28;20422;-77
2023/08/30 10:59:37;;;;;;;111.23;3.43;;;20.10;40.80;;;;;;5015374;28;20422;-77
2023/08/30 11:02:04;;;;;;;110.17;3.63;;;20.60;39.60;;;;;;5014993;28;20928;-78
2023/08/30 11:04:30;;;;;;;110.17;3.40;;;20.90;39.00;;;;;;5013850;28;20286;-78
2023/08/30 11:06:56;;;;;;;109.43;3.17;;;21.00;37.90;;;;;;5014746;28;20506;-77
2023/08/30 11:09:24;;;;;;;109.77;3.23;;;20.70;38.60;;;;;;5015241;28;20205;-77
2023/08/30 11:11:51;;;;;;;109.97;3.30;;;20.90;37.80;;;;;;5014893;28;20945;-78
2023/08/30 11:14:18;;;;;;;109.30;3.00;;;20.60;38.60;;;;;;5013165;28;20440;-79
2023/08/30 11:16:45;;;;;;;109.43;3.07;;;21.10;34.60;;;;;;5012237;28;20408;-78
2023/08/30 11:19:11;;;;;;;110.60;3.50;;;22.20;38.00;;;;;;5012458;28;20436;-79
2023/08/30 11:21:39;;;;;;;109.20;3.10;;;22.70;32.90;;;;;;5012044;28;20405;-79
2023/08/30 11:24:06;;;;;;;109.77;3.30;;;22.30;33.80;;;;;;5012166;28;20432;-79
2023/08/30 11:26:32;;;;;;;108.60;3.00;;;21.70;36.30;;;;;;5012295;28;20551;-78
2023/08/30 11:29:04;;;;;;;111.80;3.57;;;21.60;33.60;;;;;;5012196;28;20428;-78
2023/08/30 11:31:29;;;;;;;109.27;3.27;;;21.20;34.40;;;;;;5012045;28;20503;-79
2023/08/30 11:33:57;;;;;;;109.37;3.33;;;21.50;35.30;;;;;;5011969;28;20547;-79
2023/08/30 11:36:25;;;;;;;109.30;3.57;;;21.30;34.70;;;;;;5012213;28;20260;-79
2023/08/30 11:38:54;;;;;;;109.37;3.27;;;22.40;33.80;;;;;;5014018;28;20512;-79
2023/08/30 11:41:21;;;;;;;108.77;3.10;;;22.90;32.70;;;;;;5012235;28;21112;-79
2023/08/30 11:43:53;;;;;;;108.50;3.10;;;22.70;30.80;;;;;;5012031;28;20504;-78
2023/08/30 11:46:20;;;;;;;108.63;3.03;;;23.70;32.40;;;;;;5011833;28;20488;-79
2023/08/30 11:48:47;;;;;;;108.77;3.13;;;24.50;30.00;;;;;;5013010;28;20498;-79
2023/08/30 11:51:13;;;;;;;108.30;3.17;;;24.90;27.00;;;;;;5012576;28;20419;-79
2023/08/30 11:53:40;;;;;;;109.10;3.60;;;23.50;28.50;;;;;;5012201;28;20448;-79
2023/08/30 11:56:06;;;;;;;108.30;3.13;;;23.10;29.20;;;;;;5015078;28;20488;-78
2023/08/30 11:58:35;;;;;;;107.90;3.00;;;23.30;29.20;;;;;;5014776;28;20420;-78
2023/08/30 12:01:03;;;;;;;108.80;3.10;;;22.90;29.40;;;;;;5014973;28;20478;-77
2023/08/30 12:03:29;;;;;;;107.70;2.93;;;23.10;29.60;;;;;;5014357;28;20450;-78
2023/08/30 12:05:55;;;;;;;107.77;3.03;;;22.90;30.40;;;;;;5014292;28;20812;-77
2023/08/30 12:08:24;;;;;;;116.23;3.33;;;22.00;31.30;;;;;;5014978;28;20842;-78
2023/08/30 12:10:50;;;;;;;107.60;3.23;;;21.60;32.70;;;;;;5014637;28;20869;-78
2023/08/30 12:13:21;;;;;;;107.40;2.83;;;21.30;34.10;;;;;;5014491;28;20431;-78
2023/08/30 12:15:47;;;;;;;108.60;3.03;;;21.60;32.40;;;;;;5015441;28;20461;-78
2023/08/30 12:18:12;;;;;;;108.67;3.40;;;21.90;32.40;;;;;;5018328;28;20418;-78
2023/08/30 12:20:38;;;;;;;107.70;2.93;;;21.80;30.30;;;;;;5018241;28;20255;-78
2023/08/30 12:23:03;;;;;;;107.97;3.03;;;21.60;31.00;;;;;;5017763;28;20210;-77
2023/08/30 12:25:30;;;;;;;107.93;3.27;;;21.90;30.90;;;;;;5017895;28;20213;-78
2023/08/30 12:27:56;;;;;;;107.00;2.50;;;22.30;31.00;;;;;;5017559;28;20179;-78
2023/08/30 12:30:22;;;;;;;107.97;3.30;;;22.00;29.60;;;;;;5018092;28;20449;-78